sensor_id;sensor_type;location;lat;lon;timestamp;P1;durP1;ratioP1;P2;durP2;ratioP2
37535;SDS011;23379;51.554;6.736;2024-02-14T00:01:42;6.88;;;4.97;;
37535;SDS011;23379;51.554;6.736;2024-02-14T00:04:08;9.30;;;4.80;;
37535;SDS011;23379;51.554;6.736;2024-02-14T00:06:36;9.95;;;4.85;;
37535;SDS011;23379;51.554;6.736;2024-02-14T00:09:02;7.93;;;4.82;;
37535;SDS011;23379;51.554;6.736;2024-02-14T00:11:28;8.40;;;4.20;;
37535;SDS011;23379;51.554;6.736;2024-02-14T00:13:53;5.95;;;3.85;;
37535;SDS011;23379;51.554;6.736;2024-02-14T00:16:21;6.50;;;3.83;;
37535;SDS011;23379;51.554;6.736;2024-02-14T00:18:46;6.60;;;4.13;;
37535;SDS011;23379;51.554;6.736;2024-02-14T00:21:12;5.00;;;3.22;;
37535;SDS011;23379;51.554;6.736;2024-02-14T00:23:38;7.70;;;4.25;;
37535;SDS011;23379;51.554;6.736;2024-02-14T00:26:03;5.82;;;4.28;;
37535;SDS011;23379;51.554;6.736;2024-02-14T00:28:28;12.95;;;5.03;;
37535;SDS011;23379;51.554;6.736;2024-02-14T00:30:54;11.70;;;4.72;;
37535;SDS011;23379;51.554;6.736;2024-02-14T00:33:19;7.32;;;4.15;;
37535;SDS011;23379;51.554;6.736;2024-02-14T00:35:46;7.55;;;4.97;;
37535;SDS011;23379;51.554;6.736;2024-02-14T00:38:11;12.82;;;5.43;;
37535;SDS011;23379;51.554;6.736;2024-02-14T00:40:37;10.98;;;4.80;;
37535;SDS011;23379;51.554;6.736;2024-02-14T00:43:02;13.50;;;4.53;;
37535;SDS011;23379;51.554;6.736;2024-02-14T00:45:27;9.77;;;4.63;;
37535;SDS011;23379;51.554;6.736;2024-02-14T00:47:53;8.35;;;3.72;;
37535;SDS011;23379;51.554;6.736;2024-02-14T00:50:18;12.25;;;4.47;;
37535;SDS011;23379;51.554;6.736;2024-02-14T00:52:44;7.85;;;4.03;;
37535;SDS011;23379;51.554;6.736;2024-02-14T00:55:09;11.65;;;4.95;;
37535;SDS011;23379;51.554;6.736;2024-02-14T00:57:34;7.10;;;4.20;;
37535;SDS011;23379;51.554;6.736;2024-02-14T01:00:00;7.90;;;3.88;;
37535;SDS011;23379;51.554;6.736;2024-02-14T01:02:25;8.75;;;3.97;;
37535;SDS011;23379;51.554;6.736;2024-02-14T01:04:53;7.15;;;4.28;;
37535;SDS011;23379;51.554;6.736;2024-02-14T01:07:19;8.43;;;3.72;;
37535;SDS011;23379;51.554;6.736;2024-02-14T01:09:44;8.63;;;3.85;;
37535;SDS011;23379;51.554;6.736;2024-02-14T01:12:09;5.72;;;3.78;;
37535;SDS011;23379;51.554;6.736;2024-02-14T01:14:35;11.32;;;3.70;;
37535;SDS011;23379;51.554;6.736;2024-02-14T01:17:00;7.45;;;4.13;;
37535;SDS011;23379;51.554;6.736;2024-02-14T01:19:26;7.13;;;3.95;;
37535;SDS011;23379;51.554;6.736;2024-02-14T01:21:54;8.90;;;4.05;;
37535;SDS011;23379;51.554;6.736;2024-02-14T01:24:20;5.35;;;4.00;;
37535;SDS011;23379;51.554;6.736;2024-02-14T01:26:46;8.50;;;4.75;;
37535;SDS011;23379;51.554;6.736;2024-02-14T01:29:11;6.40;;;3.63;;
37535;SDS011;23379;51.554;6.736;2024-02-14T01:31:37;7.72;;;4.10;;
37535;SDS011;23379;51.554;6.736;2024-02-14T01:34:02;8.00;;;3.75;;
37535;SDS011;23379;51.554;6.736;2024-02-14T01:36:28;9.00;;;3.80;;
37535;SDS011;23379;51.554;6.736;2024-02-14T01:38:53;6.70;;;4.00;;
37535;SDS011;23379;51.554;6.736;2024-02-14T01:41:19;7.95;;;4.03;;
37535;SDS011;23379;51.554;6.736;2024-02-14T01:43:46;8.10;;;4.28;;
37535;SDS011;23379;51.554;6.736;2024-02-14T01:46:12;9.80;;;3.83;;
37535;SDS011;23379;51.554;6.736;2024-02-14T01:48:38;7.32;;;4.22;;
37535;SDS011;23379;51.554;6.736;2024-02-14T01:51:04;9.43;;;4.90;;
37535;SDS011;23379;51.554;6.736;2024-02-14T01:53:33;8.32;;;4.05;;
37535;SDS011;23379;51.554;6.736;2024-02-14T01:56:01;6.05;;;4.20;;
37535;SDS011;23379;51.554;6.736;2024-02-14T01:58:28;8.45;;;4.13;;
37535;SDS011;23379;51.554;6.736;2024-02-14T02:00:55;5.88;;;3.50;;
37535;SDS011;23379;51.554;6.736;2024-02-14T02:03:22;6.47;;;3.10;;
37535;SDS011;23379;51.554;6.736;2024-02-14T02:05:49;4.25;;;3.47;;
37535;SDS011;23379;51.554;6.736;2024-02-14T02:08:14;4.72;;;3.28;;
37535;SDS011;23379;51.554;6.736;2024-02-14T02:10:40;3.45;;;2.97;;
37535;SDS011;23379;51.554;6.736;2024-02-14T02:13:05;3.33;;;2.90;;
37535;SDS011;23379;51.554;6.736;2024-02-14T02:15:31;3.28;;;2.70;;
37535;SDS011;23379;51.554;6.736;2024-02-14T02:17:56;2.22;;;2.03;;
37535;SDS011;23379;51.554;6.736;2024-02-14T02:20:22;3.47;;;2.30;;
37535;SDS011;23379;51.554;6.736;2024-02-14T02:22:47;4.45;;;2.60;;
37535;SDS011;23379;51.554;6.736;2024-02-14T02:25:14;3.15;;;2.35;;
37535;SDS011;23379;51.554;6.736;2024-02-14T02:27:39;2.97;;;2.72;;
37535;SDS011;23379;51.554;6.736;2024-02-14T02:30:05;3.67;;;2.10;;
37535;SDS011;23379;51.554;6.736;2024-02-14T02:32:31;2.63;;;2.15;;
37535;SDS011;23379;51.554;6.736;2024-02-14T02:34:57;4.15;;;2.35;;
37535;SDS011;23379;51.554;6.736;2024-02-14T02:37:23;5.72;;;2.75;;
37535;SDS011;23379;51.554;6.736;2024-02-14T02:39:48;3.55;;;2.60;;
37535;SDS011;23379;51.554;6.736;2024-02-14T02:42:14;4.70;;;2.47;;
37535;SDS011;23379;51.554;6.736;2024-02-14T02:44:39;3.13;;;2.45;;
37535;SDS011;23379;51.554;6.736;2024-02-14T02:47:05;2.83;;;2.05;;
37535;SDS011;23379;51.554;6.736;2024-02-14T02:49:30;3.10;;;2.63;;
37535;SDS011;23379;51.554;6.736;2024-02-14T02:51:55;4.22;;;2.75;;
37535;SDS011;23379;51.554;6.736;2024-02-14T02:54:21;2.63;;;2.22;;
37535;SDS011;23379;51.554;6.736;2024-02-14T02:56:48;4.15;;;2.45;;
37535;SDS011;23379;51.554;6.736;2024-02-14T02:59:14;3.30;;;2.72;;
37535;SDS011;23379;51.554;6.736;2024-02-14T03:01:42;2.70;;;2.50;;
37535;SDS011;23379;51.554;6.736;2024-02-14T03:04:07;3.47;;;2.42;;
37535;SDS011;23379;51.554;6.736;2024-02-14T03:06:33;4.65;;;2.80;;
37535;SDS011;23379;51.554;6.736;2024-02-14T03:08:58;4.13;;;2.80;;
37535;SDS011;23379;51.554;6.736;2024-02-14T03:11:24;2.55;;;2.35;;
37535;SDS011;23379;51.554;6.736;2024-02-14T03:13:51;4.60;;;2.60;;
37535;SDS011;23379;51.554;6.736;2024-02-14T03:16:17;6.68;;;2.63;;
37535;SDS011;23379;51.554;6.736;2024-02-14T03:18:43;4.47;;;2.97;;
37535;SDS011;23379;51.554;6.736;2024-02-14T03:21:08;2.55;;;2.25;;
37535;SDS011;23379;51.554;6.736;2024-02-14T03:23:34;5.07;;;2.30;;
37535;SDS011;23379;51.554;6.736;2024-02-14T03:25:59;7.55;;;2.80;;
37535;SDS011;23379;51.554;6.736;2024-02-14T03:28:24;4.13;;;2.58;;
37535;SDS011;23379;51.554;6.736;2024-02-14T03:30:51;4.32;;;2.85;;
37535;SDS011;23379;51.554;6.736;2024-02-14T03:33:17;4.57;;;3.17;;
37535;SDS011;23379;51.554;6.736;2024-02-14T03:35:42;5.32;;;2.83;;
37535;SDS011;23379;51.554;6.736;2024-02-14T03:38:07;3.50;;;2.97;;
37535;SDS011;23379;51.554;6.736;2024-02-14T03:40:34;5.40;;;3.10;;
37535;SDS011;23379;51.554;6.736;2024-02-14T03:43:00;3.33;;;2.55;;
37535;SDS011;23379;51.554;6.736;2024-02-14T03:45:27;5.28;;;3.10;;
37535;SDS011;23379;51.554;6.736;2024-02-14T03:47:54;2.55;;;2.35;;
37535;SDS011;23379;51.554;6.736;2024-02-14T03:50:20;2.60;;;2.28;;
37535;SDS011;23379;51.554;6.736;2024-02-14T03:52:45;4.15;;;2.92;;
37535;SDS011;23379;51.554;6.736;2024-02-14T03:55:13;5.88;;;2.78;;
37535;SDS011;23379;51.554;6.736;2024-02-14T03:57:39;6.45;;;3.67;;
37535;SDS011;23379;51.554;6.736;2024-02-14T04:00:05;5.05;;;2.90;;
37535;SDS011;23379;51.554;6.736;2024-02-14T04:02:36;4.57;;;3.25;;
37535;SDS011;23379;51.554;6.736;2024-02-14T04:05:01;5.32;;;2.53;;
37535;SDS011;23379;51.554;6.736;2024-02-14T04:07:30;4.00;;;2.90;;
37535;SDS011;23379;51.554;6.736;2024-02-14T04:09:56;4.93;;;3.10;;
37535;SDS011;23379;51.554;6.736;2024-02-14T04:12:22;4.35;;;3.50;;
37535;SDS011;23379;51.554;6.736;2024-02-14T04:14:47;3.60;;;3.20;;
37535;SDS011;23379;51.554;6.736;2024-02-14T04:17:13;3.72;;;3.33;;
37535;SDS011;23379;51.554;6.736;2024-02-14T04:19:40;3.47;;;2.92;;
37535;SDS011;23379;51.554;6.736;2024-02-14T04:22:05;4.20;;;3.35;;
37535;SDS011;23379;51.554;6.736;2024-02-14T04:24:35;3.10;;;2.80;;
37535;SDS011;23379;51.554;6.736;2024-02-14T04:27:00;8.48;;;3.05;;
37535;SDS011;23379;51.554;6.736;2024-02-14T04:29:28;5.38;;;3.38;;
37535;SDS011;23379;51.554;6.736;2024-02-14T04:31:55;3.85;;;3.17;;
37535;SDS011;23379;51.554;6.736;2024-02-14T04:34:21;5.55;;;3.17;;
37535;SDS011;23379;51.554;6.736;2024-02-14T04:36:46;4.65;;;3.03;;
37535;SDS011;23379;51.554;6.736;2024-02-14T04:39:12;4.60;;;3.25;;
37535;SDS011;23379;51.554;6.736;2024-02-14T04:41:37;3.28;;;2.85;;
37535;SDS011;23379;51.554;6.736;2024-02-14T04:44:06;5.30;;;2.58;;
37535;SDS011;23379;51.554;6.736;2024-02-14T04:46:32;4.22;;;3.22;;
37535;SDS011;23379;51.554;6.736;2024-02-14T04:48:59;4.35;;;3.20;;
37535;SDS011;23379;51.554;6.736;2024-02-14T04:51:26;5.25;;;3.25;;
37535;SDS011;23379;51.554;6.736;2024-02-14T04:53:52;5.30;;;3.45;;
37535;SDS011;23379;51.554;6.736;2024-02-14T04:56:18;5.35;;;3.30;;
37535;SDS011;23379;51.554;6.736;2024-02-14T04:58:43;3.80;;;3.17;;
37535;SDS011;23379;51.554;6.736;2024-02-14T05:01:09;3.53;;;3.08;;
37535;SDS011;23379;51.554;6.736;2024-02-14T05:03:35;3.28;;;2.95;;
37535;SDS011;23379;51.554;6.736;2024-02-14T05:06:01;2.92;;;2.70;;
37535;SDS011;23379;51.554;6.736;2024-02-14T05:08:27;2.92;;;2.63;;
37535;SDS011;23379;51.554;6.736;2024-02-14T05:10:53;3.58;;;3.20;;
37535;SDS011;23379;51.554;6.736;2024-02-14T05:13:18;5.07;;;3.10;;
37535;SDS011;23379;51.554;6.736;2024-02-14T05:15:44;4.50;;;3.13;;
37535;SDS011;23379;51.554;6.736;2024-02-14T05:18:09;3.58;;;3.15;;
37535;SDS011;23379;51.554;6.736;2024-02-14T05:20:34;11.27;;;3.15;;
37535;SDS011;23379;51.554;6.736;2024-02-14T05:23:00;5.75;;;3.25;;
37535;SDS011;23379;51.554;6.736;2024-02-14T05:25:26;3.72;;;2.97;;
37535;SDS011;23379;51.554;6.736;2024-02-14T05:27:54;3.95;;;3.42;;
37535;SDS011;23379;51.554;6.736;2024-02-14T05:30:20;4.35;;;3.13;;
37535;SDS011;23379;51.554;6.736;2024-02-14T05:32:45;4.53;;;2.83;;
37535;SDS011;23379;51.554;6.736;2024-02-14T05:35:11;6.07;;;3.53;;
37535;SDS011;23379;51.554;6.736;2024-02-14T05:37:36;5.85;;;3.30;;
37535;SDS011;23379;51.554;6.736;2024-02-14T05:40:02;7.22;;;3.53;;
37535;SDS011;23379;51.554;6.736;2024-02-14T05:42:31;5.55;;;3.22;;
37535;SDS011;23379;51.554;6.736;2024-02-14T05:44:57;3.50;;;3.17;;
37535;SDS011;23379;51.554;6.736;2024-02-14T05:47:23;5.25;;;3.40;;
37535;SDS011;23379;51.554;6.736;2024-02-14T05:49:50;4.78;;;3.28;;
37535;SDS011;23379;51.554;6.736;2024-02-14T05:52:15;13.73;;;3.83;;
37535;SDS011;23379;51.554;6.736;2024-02-14T05:54:41;5.63;;;3.70;;
37535;SDS011;23379;51.554;6.736;2024-02-14T05:57:07;4.10;;;3.80;;
37535;SDS011;23379;51.554;6.736;2024-02-14T05:59:33;4.25;;;3.85;;
37535;SDS011;23379;51.554;6.736;2024-02-14T06:01:58;6.20;;;3.53;;
37535;SDS011;23379;51.554;6.736;2024-02-14T06:04:24;5.13;;;3.83;;
37535;SDS011;23379;51.554;6.736;2024-02-14T06:06:49;5.55;;;4.03;;
37535;SDS011;23379;51.554;6.736;2024-02-14T06:09:15;5.95;;;3.85;;
37535;SDS011;23379;51.554;6.736;2024-02-14T06:11:41;5.22;;;3.70;;
37535;SDS011;23379;51.554;6.736;2024-02-14T06:14:07;5.35;;;3.50;;
37535;SDS011;23379;51.554;6.736;2024-02-14T06:16:37;6.32;;;4.47;;
37535;SDS011;23379;51.554;6.736;2024-02-14T06:19:03;4.07;;;3.58;;
37535;SDS011;23379;51.554;6.736;2024-02-14T06:21:29;6.35;;;4.07;;
37535;SDS011;23379;51.554;6.736;2024-02-14T06:23:55;4.10;;;3.67;;
37535;SDS011;23379;51.554;6.736;2024-02-14T06:26:20;5.38;;;3.83;;
37535;SDS011;23379;51.554;6.736;2024-02-14T06:28:46;4.65;;;4.05;;
37535;SDS011;23379;51.554;6.736;2024-02-14T06:31:11;5.75;;;4.35;;
37535;SDS011;23379;51.554;6.736;2024-02-14T06:33:37;5.32;;;4.07;;
37535;SDS011;23379;51.554;6.736;2024-02-14T06:36:02;5.88;;;4.45;;
37535;SDS011;23379;51.554;6.736;2024-02-14T06:38:28;7.20;;;4.47;;
37535;SDS011;23379;51.554;6.736;2024-02-14T06:40:53;5.78;;;4.50;;
37535;SDS011;23379;51.554;6.736;2024-02-14T06:43:19;8.00;;;4.75;;
37535;SDS011;23379;51.554;6.736;2024-02-14T06:45:45;5.05;;;4.35;;
37535;SDS011;23379;51.554;6.736;2024-02-14T06:48:10;5.80;;;4.82;;
37535;SDS011;23379;51.554;6.736;2024-02-14T06:50:35;5.55;;;4.40;;
37535;SDS011;23379;51.554;6.736;2024-02-14T06:53:01;5.90;;;4.47;;
37535;SDS011;23379;51.554;6.736;2024-02-14T06:55:26;8.35;;;4.90;;
37535;SDS011;23379;51.554;6.736;2024-02-14T06:57:52;5.63;;;4.15;;
37535;SDS011;23379;51.554;6.736;2024-02-14T07:00:19;6.70;;;4.60;;
37535;SDS011;23379;51.554;6.736;2024-02-14T07:02:44;8.35;;;5.60;;
37535;SDS011;23379;51.554;6.736;2024-02-14T07:05:13;6.78;;;4.50;;
37535;SDS011;23379;51.554;6.736;2024-02-14T07:07:39;7.20;;;5.25;;
37535;SDS011;23379;51.554;6.736;2024-02-14T07:10:05;5.95;;;4.95;;
37535;SDS011;23379;51.554;6.736;2024-02-14T07:12:31;5.40;;;4.60;;
37535;SDS011;23379;51.554;6.736;2024-02-14T07:14:57;10.68;;;4.22;;
37535;SDS011;23379;51.554;6.736;2024-02-14T07:17:22;5.25;;;4.45;;
37535;SDS011;23379;51.554;6.736;2024-02-14T07:19:47;6.40;;;4.93;;
37535;SDS011;23379;51.554;6.736;2024-02-14T07:22:14;8.38;;;5.15;;
37535;SDS011;23379;51.554;6.736;2024-02-14T07:24:41;10.73;;;5.70;;
37535;SDS011;23379;51.554;6.736;2024-02-14T07:27:07;8.40;;;5.43;;
37535;SDS011;23379;51.554;6.736;2024-02-14T07:29:32;7.55;;;6.03;;
37535;SDS011;23379;51.554;6.736;2024-02-14T07:32:01;8.73;;;5.47;;
37535;SDS011;23379;51.554;6.736;2024-02-14T07:34:27;7.05;;;5.68;;
37535;SDS011;23379;51.554;6.736;2024-02-14T07:36:52;11.25;;;6.07;;
37535;SDS011;23379;51.554;6.736;2024-02-14T07:39:18;9.27;;;5.50;;
37535;SDS011;23379;51.554;6.736;2024-02-14T07:41:43;9.35;;;5.80;;
37535;SDS011;23379;51.554;6.736;2024-02-14T07:44:09;8.98;;;6.55;;
37535;SDS011;23379;51.554;6.736;2024-02-14T07:46:34;8.63;;;6.00;;
37535;SDS011;23379;51.554;6.736;2024-02-14T07:48:59;9.00;;;6.28;;
37535;SDS011;23379;51.554;6.736;2024-02-14T07:51:25;8.40;;;6.07;;
37535;SDS011;23379;51.554;6.736;2024-02-14T07:53:50;9.35;;;5.97;;
37535;SDS011;23379;51.554;6.736;2024-02-14T07:56:16;10.77;;;6.70;;
37535;SDS011;23379;51.554;6.736;2024-02-14T07:58:43;9.15;;;6.60;;
37535;SDS011;23379;51.554;6.736;2024-02-14T08:01:09;8.00;;;6.72;;
37535;SDS011;23379;51.554;6.736;2024-02-14T08:03:34;12.05;;;6.32;;
37535;SDS011;23379;51.554;6.736;2024-02-14T08:05:59;9.43;;;7.15;;
37535;SDS011;23379;51.554;6.736;2024-02-14T08:08:25;8.82;;;6.68;;
37535;SDS011;23379;51.554;6.736;2024-02-14T08:10:52;11.18;;;6.45;;
37535;SDS011;23379;51.554;6.736;2024-02-14T08:13:17;10.85;;;6.95;;
37535;SDS011;23379;51.554;6.736;2024-02-14T08:15:43;11.40;;;6.30;;
37535;SDS011;23379;51.554;6.736;2024-02-14T08:18:08;10.80;;;6.13;;
37535;SDS011;23379;51.554;6.736;2024-02-14T08:20:34;7.47;;;5.22;;
37535;SDS011;23379;51.554;6.736;2024-02-14T08:22:59;7.95;;;6.10;;
37535;SDS011;23379;51.554;6.736;2024-02-14T08:25:24;8.68;;;5.82;;
37535;SDS011;23379;51.554;6.736;2024-02-14T08:27:51;12.40;;;5.93;;
37535;SDS011;23379;51.554;6.736;2024-02-14T08:30:17;9.50;;;5.07;;
37535;SDS011;23379;51.554;6.736;2024-02-14T08:32:42;8.55;;;5.65;;
37535;SDS011;23379;51.554;6.736;2024-02-14T08:35:08;11.98;;;5.38;;
37535;SDS011;23379;51.554;6.736;2024-02-14T08:37:34;8.80;;;5.45;;
37535;SDS011;23379;51.554;6.736;2024-02-14T08:40:02;10.82;;;5.25;;
37535;SDS011;23379;51.554;6.736;2024-02-14T08:42:30;9.68;;;4.95;;
37535;SDS011;23379;51.554;6.736;2024-02-14T08:44:56;10.68;;;5.28;;
37535;SDS011;23379;51.554;6.736;2024-02-14T08:47:22;7.07;;;4.70;;
37535;SDS011;23379;51.554;6.736;2024-02-14T08:49:47;5.07;;;4.57;;
37535;SDS011;23379;51.554;6.736;2024-02-14T08:52:12;6.80;;;4.88;;
37535;SDS011;23379;51.554;6.736;2024-02-14T08:54:38;11.20;;;5.13;;
37535;SDS011;23379;51.554;6.736;2024-02-14T08:57:04;6.32;;;4.28;;
37535;SDS011;23379;51.554;6.736;2024-02-14T08:59:29;7.53;;;4.65;;
37535;SDS011;23379;51.554;6.736;2024-02-14T09:01:55;8.30;;;4.75;;
37535;SDS011;23379;51.554;6.736;2024-02-14T09:04:21;9.32;;;4.05;;
37535;SDS011;23379;51.554;6.736;2024-02-14T09:06:46;6.53;;;4.40;;
37535;SDS011;23379;51.554;6.736;2024-02-14T09:09:11;8.88;;;4.75;;
37535;SDS011;23379;51.554;6.736;2024-02-14T09:11:39;6.63;;;4.15;;
37535;SDS011;23379;51.554;6.736;2024-02-14T09:14:05;9.38;;;4.55;;
37535;SDS011;23379;51.554;6.736;2024-02-14T09:16:32;7.05;;;4.47;;
37535;SDS011;23379;51.554;6.736;2024-02-14T09:18:58;11.00;;;5.00;;
37535;SDS011;23379;51.554;6.736;2024-02-14T09:21:24;6.78;;;4.80;;
37535;SDS011;23379;51.554;6.736;2024-02-14T09:23:49;6.05;;;4.47;;
37535;SDS011;23379;51.554;6.736;2024-02-14T09:26:15;10.10;;;4.47;;
37535;SDS011;23379;51.554;6.736;2024-02-14T09:28:43;6.85;;;3.95;;
37535;SDS011;23379;51.554;6.736;2024-02-14T09:31:08;7.45;;;5.10;;
37535;SDS011;23379;51.554;6.736;2024-02-14T09:33:37;11.77;;;4.55;;
37535;SDS011;23379;51.554;6.736;2024-02-14T09:36:03;6.90;;;4.47;;
37535;SDS011;23379;51.554;6.736;2024-02-14T09:38:29;5.93;;;4.63;;
37535;SDS011;23379;51.554;6.736;2024-02-14T09:40:58;6.80;;;4.65;;
37535;SDS011;23379;51.554;6.736;2024-02-14T09:43:48;7.38;;;4.18;;
37535;SDS011;23379;51.554;6.736;2024-02-14T09:46:14;6.97;;;4.78;;
37535;SDS011;23379;51.554;6.736;2024-02-14T09:48:40;6.85;;;4.13;;
37535;SDS011;23379;51.554;6.736;2024-02-14T09:51:10;5.63;;;3.80;;
37535;SDS011;23379;51.554;6.736;2024-02-14T09:53:37;6.63;;;3.90;;
37535;SDS011;23379;51.554;6.736;2024-02-14T09:56:03;9.85;;;4.03;;
37535;SDS011;23379;51.554;6.736;2024-02-14T09:58:30;8.20;;;3.72;;
37535;SDS011;23379;51.554;6.736;2024-02-14T10:01:00;5.22;;;3.47;;
37535;SDS011;23379;51.554;6.736;2024-02-14T10:10:09;6.20;;;3.65;;
37535;SDS011;23379;51.554;6.736;2024-02-14T10:12:36;4.85;;;3.10;;
37535;SDS011;23379;51.554;6.736;2024-02-14T10:15:01;7.40;;;2.97;;
37535;SDS011;23379;51.554;6.736;2024-02-14T10:17:27;11.70;;;3.15;;
37535;SDS011;23379;51.554;6.736;2024-02-14T10:19:59;5.80;;;3.10;;
37535;SDS011;23379;51.554;6.736;2024-02-14T10:22:36;6.32;;;3.58;;
37535;SDS011;23379;51.554;6.736;2024-02-14T10:25:03;4.45;;;2.80;;
37535;SDS011;23379;51.554;6.736;2024-02-14T10:27:33;6.43;;;3.03;;
37535;SDS011;23379;51.554;6.736;2024-02-14T10:30:02;3.92;;;2.92;;
37535;SDS011;23379;51.554;6.736;2024-02-14T10:32:27;5.82;;;2.85;;
37535;SDS011;23379;51.554;6.736;2024-02-14T10:34:52;5.70;;;3.00;;
37535;SDS011;23379;51.554;6.736;2024-02-14T10:37:18;7.63;;;2.78;;
37535;SDS011;23379;51.554;6.736;2024-02-14T10:39:46;4.22;;;3.15;;
37535;SDS011;23379;51.554;6.736;2024-02-14T10:42:15;6.05;;;2.55;;
37535;SDS011;23379;51.554;6.736;2024-02-14T10:44:40;6.80;;;2.78;;
37535;SDS011;23379;51.554;6.736;2024-02-14T10:47:06;6.22;;;2.80;;
37535;SDS011;23379;51.554;6.736;2024-02-14T10:49:35;7.90;;;2.85;;
37535;SDS011;23379;51.554;6.736;2024-02-14T10:52:05;5.03;;;2.40;;
37535;SDS011;23379;51.554;6.736;2024-02-14T10:54:32;4.22;;;2.03;;
37535;SDS011;23379;51.554;6.736;2024-02-14T10:57:00;4.75;;;2.47;;
37535;SDS011;23379;51.554;6.736;2024-02-14T10:59:32;4.80;;;2.22;;
37535;SDS011;23379;51.554;6.736;2024-02-14T11:01:58;4.70;;;2.10;;
37535;SDS011;23379;51.554;6.736;2024-02-14T11:04:24;7.95;;;2.33;;
37535;SDS011;23379;51.554;6.736;2024-02-14T11:06:53;7.97;;;2.60;;
37535;SDS011;23379;51.554;6.736;2024-02-14T11:09:21;3.63;;;2.08;;
37535;SDS011;23379;51.554;6.736;2024-02-14T11:11:46;4.68;;;2.80;;
37535;SDS011;23379;51.554;6.736;2024-02-14T11:14:15;3.45;;;2.40;;
37535;SDS011;23379;51.554;6.736;2024-02-14T11:16:44;9.43;;;2.35;;
37535;SDS011;23379;51.554;6.736;2024-02-14T11:19:11;5.45;;;2.25;;
37535;SDS011;23379;51.554;6.736;2024-02-14T11:21:42;7.78;;;2.92;;
37535;SDS011;23379;51.554;6.736;2024-02-14T11:24:09;4.32;;;2.30;;
37535;SDS011;23379;51.554;6.736;2024-02-14T11:26:39;7.53;;;2.25;;
37535;SDS011;23379;51.554;6.736;2024-02-14T11:29:18;5.03;;;2.58;;
37535;SDS011;23379;51.554;6.736;2024-02-14T11:31:44;4.53;;;2.53;;
37535;SDS011;23379;51.554;6.736;2024-02-14T11:34:16;6.43;;;2.58;;
37535;SDS011;23379;51.554;6.736;2024-02-14T11:39:09;5.35;;;2.25;;
37535;SDS011;23379;51.554;6.736;2024-02-14T11:41:37;2.38;;;2.08;;
37535;SDS011;23379;51.554;6.736;2024-02-14T11:44:06;7.95;;;2.42;;
37535;SDS011;23379;51.554;6.736;2024-02-14T11:46:32;6.57;;;2.13;;
37535;SDS011;23379;51.554;6.736;2024-02-14T11:48:59;2.45;;;1.85;;
37535;SDS011;23379;51.554;6.736;2024-02-14T11:51:26;5.13;;;2.22;;
37535;SDS011;23379;51.554;6.736;2024-02-14T11:53:53;2.40;;;2.20;;
37535;SDS011;23379;51.554;6.736;2024-02-14T11:56:20;6.75;;;2.45;;
37535;SDS011;23379;51.554;6.736;2024-02-14T11:58:47;2.58;;;2.30;;
37535;SDS011;23379;51.554;6.736;2024-02-14T12:01:15;2.60;;;2.05;;
37535;SDS011;23379;51.554;6.736;2024-02-14T12:03:42;4.07;;;2.03;;
37535;SDS011;23379;51.554;6.736;2024-02-14T12:06:09;2.92;;;1.83;;
37535;SDS011;23379;51.554;6.736;2024-02-14T12:08:35;2.78;;;1.70;;
37535;SDS011;23379;51.554;6.736;2024-02-14T12:11:01;2.35;;;1.77;;
37535;SDS011;23379;51.554;6.736;2024-02-14T12:13:27;3.10;;;1.80;;
37535;SDS011;23379;51.554;6.736;2024-02-14T12:15:57;1.98;;;1.75;;
37535;SDS011;23379;51.554;6.736;2024-02-14T12:18:23;1.75;;;1.60;;
37535;SDS011;23379;51.554;6.736;2024-02-14T12:20:48;1.67;;;1.58;;
37535;SDS011;23379;51.554;6.736;2024-02-14T12:23:16;2.05;;;1.70;;
37535;SDS011;23379;51.554;6.736;2024-02-14T12:25:42;4.68;;;1.60;;
37535;SDS011;23379;51.554;6.736;2024-02-14T12:28:13;1.40;;;1.30;;
37535;SDS011;23379;51.554;6.736;2024-02-14T12:30:48;2.15;;;1.67;;
37535;SDS011;23379;51.554;6.736;2024-02-14T12:33:15;2.13;;;1.55;;
37535;SDS011;23379;51.554;6.736;2024-02-14T12:35:44;1.73;;;1.42;;
37535;SDS011;23379;51.554;6.736;2024-02-14T12:38:13;1.70;;;1.60;;
37535;SDS011;23379;51.554;6.736;2024-02-14T12:40:39;4.50;;;1.88;;
37535;SDS011;23379;51.554;6.736;2024-02-14T12:43:12;1.85;;;1.58;;
37535;SDS011;23379;51.554;6.736;2024-02-14T12:45:39;2.03;;;1.60;;
37535;SDS011;23379;51.554;6.736;2024-02-14T12:48:05;3.58;;;1.63;;
37535;SDS011;23379;51.554;6.736;2024-02-14T12:50:33;2.13;;;1.80;;
37535;SDS011;23379;51.554;6.736;2024-02-14T12:52:59;1.92;;;1.75;;
37535;SDS011;23379;51.554;6.736;2024-02-14T12:55:25;1.83;;;1.42;;
37535;SDS011;23379;51.554;6.736;2024-02-14T12:57:53;2.47;;;1.58;;
37535;SDS011;23379;51.554;6.736;2024-02-14T13:00:19;1.70;;;1.50;;
37535;SDS011;23379;51.554;6.736;2024-02-14T13:02:46;2.60;;;1.70;;
37535;SDS011;23379;51.554;6.736;2024-02-14T13:05:15;2.17;;;1.90;;
37535;SDS011;23379;51.554;6.736;2024-02-14T13:07:41;1.63;;;1.52;;
37535;SDS011;23379;51.554;6.736;2024-02-14T13:10:07;3.17;;;1.50;;
37535;SDS011;23379;51.554;6.736;2024-02-14T13:12:37;4.63;;;1.67;;
37535;SDS011;23379;51.554;6.736;2024-02-14T13:15:03;1.90;;;1.70;;
37535;SDS011;23379;51.554;6.736;2024-02-14T13:17:31;2.33;;;1.67;;
37535;SDS011;23379;51.554;6.736;2024-02-14T13:19:57;2.00;;;1.52;;
37535;SDS011;23379;51.554;6.736;2024-02-14T13:22:24;3.60;;;1.73;;
37535;SDS011;23379;51.554;6.736;2024-02-14T13:24:50;5.43;;;1.88;;
37535;SDS011;23379;51.554;6.736;2024-02-14T13:27:15;3.33;;;1.90;;
37535;SDS011;23379;51.554;6.736;2024-02-14T13:29:41;3.75;;;1.65;;
37535;SDS011;23379;51.554;6.736;2024-02-14T13:32:06;3.55;;;1.60;;
37535;SDS011;23379;51.554;6.736;2024-02-14T13:34:33;2.35;;;1.98;;
37535;SDS011;23379;51.554;6.736;2024-02-14T13:36:59;2.03;;;1.85;;
37535;SDS011;23379;51.554;6.736;2024-02-14T13:39:25;3.97;;;1.80;;
37535;SDS011;23379;51.554;6.736;2024-02-14T13:41:50;2.00;;;1.77;;
37535;SDS011;23379;51.554;6.736;2024-02-14T13:44:17;3.67;;;1.95;;
37535;SDS011;23379;51.554;6.736;2024-02-14T13:46:43;2.38;;;1.95;;
37535;SDS011;23379;51.554;6.736;2024-02-14T13:49:10;2.72;;;1.75;;
37535;SDS011;23379;51.554;6.736;2024-02-14T13:51:36;1.73;;;1.63;;
37535;SDS011;23379;51.554;6.736;2024-02-14T13:54:02;1.95;;;1.60;;
37535;SDS011;23379;51.554;6.736;2024-02-14T13:56:28;3.03;;;1.60;;
37535;SDS011;23379;51.554;6.736;2024-02-14T13:58:54;1.80;;;1.60;;
37535;SDS011;23379;51.554;6.736;2024-02-14T14:01:19;1.67;;;1.58;;
37535;SDS011;23379;51.554;6.736;2024-02-14T14:03:45;1.70;;;1.50;;
37535;SDS011;23379;51.554;6.736;2024-02-14T14:06:10;3.47;;;1.50;;
37535;SDS011;23379;51.554;6.736;2024-02-14T14:08:36;2.35;;;1.60;;
37535;SDS011;23379;51.554;6.736;2024-02-14T14:11:04;1.42;;;1.23;;
37535;SDS011;23379;51.554;6.736;2024-02-14T14:13:30;1.75;;;1.65;;
37535;SDS011;23379;51.554;6.736;2024-02-14T14:15:58;1.60;;;1.50;;
37535;SDS011;23379;51.554;6.736;2024-02-14T14:18:26;1.80;;;1.70;;
37535;SDS011;23379;51.554;6.736;2024-02-14T14:20:52;1.92;;;1.70;;
37535;SDS011;23379;51.554;6.736;2024-02-14T14:23:17;1.80;;;1.70;;
37535;SDS011;23379;51.554;6.736;2024-02-14T14:25:43;2.65;;;1.92;;
37535;SDS011;23379;51.554;6.736;2024-02-14T14:28:08;1.85;;;1.75;;
37535;SDS011;23379;51.554;6.736;2024-02-14T14:30:34;2.00;;;1.90;;
37535;SDS011;23379;51.554;6.736;2024-02-14T14:33:03;2.28;;;2.00;;
37535;SDS011;23379;51.554;6.736;2024-02-14T14:35:29;3.22;;;2.00;;
37535;SDS011;23379;51.554;6.736;2024-02-14T14:37:58;1.73;;;1.63;;
37535;SDS011;23379;51.554;6.736;2024-02-14T14:40:24;3.88;;;2.00;;
37535;SDS011;23379;51.554;6.736;2024-02-14T14:42:50;2.67;;;1.88;;
37535;SDS011;23379;51.554;6.736;2024-02-14T14:45:15;1.98;;;1.77;;
37535;SDS011;23379;51.554;6.736;2024-02-14T14:47:41;2.25;;;1.90;;
37535;SDS011;23379;51.554;6.736;2024-02-14T14:50:07;1.88;;;1.77;;